sensor_id;sensor_type;location;lat;lon;timestamp;P1;P2;P0
62547;PMS7003;48602;45.192;5.722;2023-02-22T00:01:14;38.00;34.00;24.00
62547;PMS7003;48602;45.192;5.722;2023-02-22T00:03:47;46.67;36.33;25.00
62547;PMS7003;48602;45.192;5.722;2023-02-22T00:06:16;41.67;36.33;25.67
62547;PMS7003;48602;45.192;5.722;2023-02-22T00:08:45;51.67;39.33;25.33
62547;PMS7003;48602;45.192;5.722;2023-02-22T00:11:11;48.33;37.00;25.33
62547;PMS7003;48602;45.192;5.722;2023-02-22T00:13:38;41.67;37.33;24.67
62547;PMS7003;48602;45.192;5.722;2023-02-22T00:16:08;41.33;34.33;22.33
62547;PMS7003;48602;45.192;5.722;2023-02-22T00:18:36;41.33;36.67;24.33
62547;PMS7003;48602;45.192;5.722;2023-02-22T00:21:02;53.33;38.67;25.33
62547;PMS7003;48602;45.192;5.722;2023-02-22T00:23:29;63.33;49.00;31.33
62547;PMS7003;48602;45.192;5.722;2023-02-22T00:25:56;43.00;36.00;24.67
62547;PMS7003;48602;45.192;5.722;2023-02-22T00:28:23;51.33;41.00;25.33
62547;PMS7003;48602;45.192;5.722;2023-02-22T00:30:49;41.67;35.00;22.33
62547;PMS7003;48602;45.192;5.722;2023-02-22T00:33:15;44.00;36.00;22.00
62547;PMS7003;48602;45.192;5.722;2023-02-22T00:35:41;35.67;31.67;22.33
62547;PMS7003;48602;45.192;5.722;2023-02-22T00:38:10;40.33;35.67;23.67
62547;PMS7003;48602;45.192;5.722;2023-02-22T00:40:36;36.33;29.67;19.00
62547;PMS7003;48602;45.192;5.722;2023-02-22T00:43:03;45.00;35.67;25.00
62547;PMS7003;48602;45.192;5.722;2023-02-22T00:45:30;40.67;36.33;23.33
62547;PMS7003;48602;45.192;5.722;2023-02-22T00:47:56;41.00;36.33;25.00
62547;PMS7003;48602;45.192;5.722;2023-02-22T00:50:24;44.33;33.67;23.00
62547;PMS7003;48602;45.192;5.722;2023-02-22T00:52:51;44.00;35.33;24.00
62547;PMS7003;48602;45.192;5.722;2023-02-22T00:55:19;41.67;36.00;22.67
62547;PMS7003;48602;45.192;5.722;2023-02-22T00:57:47;33.67;27.00;22.00
62547;PMS7003;48602;45.192;5.722;2023-02-22T01:00:18;44.33;35.00;24.33
62547;PMS7003;48602;45.192;5.722;2023-02-22T01:02:49;40.33;33.67;25.00
62547;PMS7003;48602;45.192;5.722;2023-02-22T01:05:15;44.00;34.67;24.00
62547;PMS7003;48602;45.192;5.722;2023-02-22T01:07:43;46.33;36.00;25.00
62547;PMS7003;48602;45.192;5.722;2023-02-22T01:10:09;42.33;36.00;25.00
62547;PMS7003;48602;45.192;5.722;2023-02-22T01:12:36;39.67;34.33;24.33
62547;PMS7003;48602;45.192;5.722;2023-02-22T01:15:03;41.00;36.00;22.67
62547;PMS7003;48602;45.192;5.722;2023-02-22T01:17:34;46.33;35.67;24.00
62547;PMS7003;48602;45.192;5.722;2023-02-22T01:20:00;37.67;30.67;20.33
62547;PMS7003;48602;45.192;5.722;2023-02-22T01:22:25;33.67;31.67;22.33
62547;PMS7003;48602;45.192;5.722;2023-02-22T01:24:52;42.00;36.00;23.00
62547;PMS7003;48602;45.192;5.722;2023-02-22T01:27:19;45.00;37.67;24.67
62547;PMS7003;48602;45.192;5.722;2023-02-22T01:29:44;47.33;37.67;25.33
62547;PMS7003;48602;45.192;5.722;2023-02-22T01:32:12;48.33;40.00;26.00
62547;PMS7003;48602;45.192;5.722;2023-02-22T01:34:38;44.33;36.67;25.00
62547;PMS7003;48602;45.192;5.722;2023-02-22T01:37:04;50.67;41.67;28.00
62547;PMS7003;48602;45.192;5.722;2023-02-22T01:39:30;51.67;43.33;27.33
62547;PMS7003;48602;45.192;5.722;2023-02-22T01:41:56;49.00;39.67;25.00
62547;PMS7003;48602;45.192;5.722;2023-02-22T01:46:56;51.33;41.00;27.00
62547;PMS7003;48602;45.192;5.722;2023-02-22T01:49:24;49.67;37.00;25.33
62547;PMS7003;48602;45.192;5.722;2023-02-22T01:51:54;49.67;41.33;27.33
62547;PMS7003;48602;45.192;5.722;2023-02-22T01:56:59;49.00;40.33;26.67
62547;PMS7003;48602;45.192;5.722;2023-02-22T01:59:33;51.67;41.00;28.33
62547;PMS7003;48602;45.192;5.722;2023-02-22T02:02:01;49.67;39.33;26.00
62547;PMS7003;48602;45.192;5.722;2023-02-22T02:04:28;48.33;40.33;28.00
62547;PMS7003;48602;45.192;5.722;2023-02-22T02:06:57;54.33;42.67;26.00
62547;PMS7003;48602;45.192;5.722;2023-02-22T02:10:12;54.00;41.67;28.00
62547;PMS7003;48602;45.192;5.722;2023-02-22T02:12:28;54.33;43.33;27.00
62547;PMS7003;48602;45.192;5.722;2023-02-22T02:17:52;49.33;40.00;28.00
62547;PMS7003;48602;45.192;5.722;2023-02-22T02:28:39;55.67;45.00;28.00
62547;PMS7003;48602;45.192;5.722;2023-02-22T02:31:29;55.00;44.33;30.00
62547;PMS7003;48602;45.192;5.722;2023-02-22T02:34:14;58.67;47.00;31.33
62547;PMS7003;48602;45.192;5.722;2023-02-22T02:39:38;56.67;43.33;29.33
62547;PMS7003;48602;45.192;5.722;2023-02-22T02:42:07;56.00;43.33;29.67
62547;PMS7003;48602;45.192;5.722;2023-02-22T02:44:46;54.00;44.00;29.00
62547;PMS7003;48602;45.192;5.722;2023-02-22T02:47:24;56.00;44.00;29.00
62547;PMS7003;48602;45.192;5.722;2023-02-22T02:49:58;61.33;45.00;30.33
62547;PMS7003;48602;45.192;5.722;2023-02-22T02:52:29;58.67;45.00;30.67
62547;PMS7003;48602;45.192;5.722;2023-02-22T02:54:58;64.00;46.67;30.00
62547;PMS7003;48602;45.192;5.722;2023-02-22T02:57:27;61.67;49.00;30.33
62547;PMS7003;48602;45.192;5.722;2023-02-22T02:59:52;62.00;47.67;31.00
62547;PMS7003;48602;45.192;5.722;2023-02-22T03:14:01;60.33;47.67;31.00
62547;PMS7003;48602;45.192;5.722;2023-02-22T03:16:33;57.67;46.67;30.33
62547;PMS7003;48602;45.192;5.722;2023-02-22T03:19:26;61.33;50.00;32.33
62547;PMS7003;48602;45.192;5.722;2023-02-22T03:22:06;63.33;50.00;32.33
62547;PMS7003;48602;45.192;5.722;2023-02-22T03:25:18;63.67;50.33;32.33
62547;PMS7003;48602;45.192;5.722;2023-02-22T03:27:37;59.67;47.00;31.67
62547;PMS7003;48602;45.192;5.722;2023-02-22T03:30:11;59.33;47.33;28.33
62547;PMS7003;48602;45.192;5.722;2023-02-22T03:32:45;58.33;47.33;29.33
62547;PMS7003;48602;45.192;5.722;2023-02-22T03:35:19;57.33;44.33;29.00
62547;PMS7003;48602;45.192;5.722;2023-02-22T03:37:50;58.67;46.33;31.67
62547;PMS7003;48602;45.192;5.722;2023-02-22T03:40:21;63.00;50.33;32.33
62547;PMS7003;48602;45.192;5.722;2023-02-22T03:42:53;65.33;49.33;33.00
62547;PMS7003;48602;45.192;5.722;2023-02-22T03:45:25;54.67;44.67;29.00
62547;PMS7003;48602;45.192;5.722;2023-02-22T03:48:36;64.67;44.67;29.00
62547;PMS7003;48602;45.192;5.722;2023-02-22T03:50:53;60.00;46.67;31.33
62547;PMS7003;48602;45.192;5.722;2023-02-22T03:53:19;37.67;34.67;26.00
62547;PMS7003;48602;45.192;5.722;2023-02-22T03:55:47;28.00;26.00;18.67
62547;PMS7003;48602;45.192;5.722;2023-02-22T03:58:15;27.00;23.00;17.67
62547;PMS7003;48602;45.192;5.722;2023-02-22T04:00:44;22.67;21.00;16.67
62547;PMS7003;48602;45.192;5.722;2023-02-22T04:03:10;20.67;20.33;16.00
62547;PMS7003;48602;45.192;5.722;2023-02-22T04:05:35;28.67;25.67;19.33
62547;PMS7003;48602;45.192;5.722;2023-02-22T04:08:02;27.33;25.33;18.67
62547;PMS7003;48602;45.192;5.722;2023-02-22T04:10:27;28.33;24.67;18.00
62547;PMS7003;48602;45.192;5.722;2023-02-22T04:12:53;32.67;26.67;18.67
62547;PMS7003;48602;45.192;5.722;2023-02-22T04:15:20;34.00;29.00;20.67
62547;PMS7003;48602;45.192;5.722;2023-02-22T04:17:46;28.33;25.33;18.33
62547;PMS7003;48602;45.192;5.722;2023-02-22T04:20:12;35.00;30.00;20.67
62547;PMS7003;48602;45.192;5.722;2023-02-22T04:22:38;34.67;30.00;21.33
62547;PMS7003;48602;45.192;5.722;2023-02-22T04:25:05;30.00;27.00;18.67
62547;PMS7003;48602;45.192;5.722;2023-02-22T04:27:31;40.33;35.00;23.00
62547;PMS7003;48602;45.192;5.722;2023-02-22T04:29:56;37.33;31.33;22.00
62547;PMS7003;48602;45.192;5.722;2023-02-22T04:32:21;42.33;34.33;23.67
62547;PMS7003;48602;45.192;5.722;2023-02-22T04:34:47;40.67;35.00;24.33
62547;PMS7003;48602;45.192;5.722;2023-02-22T04:37:15;40.67;33.33;24.00
62547;PMS7003;48602;45.192;5.722;2023-02-22T04:39:41;50.00;39.00;24.67
62547;PMS7003;48602;45.192;5.722;2023-02-22T04:42:06;53.00;38.00;25.00
62547;PMS7003;48602;45.192;5.722;2023-02-22T04:44:31;42.00;37.67;26.33
62547;PMS7003;48602;45.192;5.722;2023-02-22T04:46:57;36.33;32.00;23.00
62547;PMS7003;48602;45.192;5.722;2023-02-22T04:49:22;45.33;37.00;24.67
62547;PMS7003;48602;45.192;5.722;2023-02-22T04:51:48;40.33;36.67;24.33
62547;PMS7003;48602;45.192;5.722;2023-02-22T04:54:14;51.00;40.33;26.00
62547;PMS7003;48602;45.192;5.722;2023-02-22T04:56:41;45.00;38.00;25.33
62547;PMS7003;48602;45.192;5.722;2023-02-22T04:59:07;43.67;37.67;24.67
62547;PMS7003;48602;45.192;5.722;2023-02-22T05:01:33;47.00;39.33;26.00
62547;PMS7003;48602;45.192;5.722;2023-02-22T05:04:06;50.33;37.67;25.33
62547;PMS7003;48602;45.192;5.722;2023-02-22T05:06:32;42.00;37.00;25.00
62547;PMS7003;48602;45.192;5.722;2023-02-22T05:08:57;42.67;35.67;22.00
62547;PMS7003;48602;45.192;5.722;2023-02-22T05:11:23;33.33;32.33;25.00
62547;PMS7003;48602;45.192;5.722;2023-02-22T05:13:48;39.33;34.67;24.33
62547;PMS7003;48602;45.192;5.722;2023-02-22T05:16:14;36.00;30.00;21.00
62547;PMS7003;48602;45.192;5.722;2023-02-22T05:18:40;29.00;25.67;18.33
62547;PMS7003;48602;45.192;5.722;2023-02-22T05:21:06;27.00;21.67;14.00
62547;PMS7003;48602;45.192;5.722;2023-02-22T05:23:31;50.33;39.00;25.33
62547;PMS7003;48602;45.192;5.722;2023-02-22T05:25:57;47.00;38.33;26.33
62547;PMS7003;48602;45.192;5.722;2023-02-22T05:28:23;44.67;37.00;25.33
62547;PMS7003;48602;45.192;5.722;2023-02-22T05:30:48;46.00;36.33;25.00
62547;PMS7003;48602;45.192;5.722;2023-02-22T05:33:14;50.67;37.00;25.33
62547;PMS7003;48602;45.192;5.722;2023-02-22T05:35:39;39.67;36.33;26.33
62547;PMS7003;48602;45.192;5.722;2023-02-22T05:38:05;46.33;38.33;25.33
62547;PMS7003;48602;45.192;5.722;2023-02-22T05:40:31;54.33;40.33;25.33
62547;PMS7003;48602;45.192;5.722;2023-02-22T05:42:58;53.67;37.67;26.00
62547;PMS7003;48602;45.192;5.722;2023-02-22T05:45:25;53.67;37.33;26.33
62547;PMS7003;48602;45.192;5.722;2023-02-22T05:47:52;45.67;39.33;28.00
62547;PMS7003;48602;45.192;5.722;2023-02-22T05:50:18;51.00;38.33;27.00
62547;PMS7003;48602;45.192;5.722;2023-02-22T05:52:45;49.00;40.33;26.33
62547;PMS7003;48602;45.192;5.722;2023-02-22T05:55:13;44.33;36.33;25.67
62547;PMS7003;48602;45.192;5.722;2023-02-22T05:57:41;38.00;31.00;23.00
62547;PMS7003;48602;45.192;5.722;2023-02-22T06:00:07;39.00;29.67;21.67
62547;PMS7003;48602;45.192;5.722;2023-02-22T06:02:33;38.33;35.00;23.00
62547;PMS7003;48602;45.192;5.722;2023-02-22T06:04:58;38.33;35.33;23.00
62547;PMS7003;48602;45.192;5.722;2023-02-22T06:07:24;41.00;33.67;23.00
62547;PMS7003;48602;45.192;5.722;2023-02-22T06:09:49;42.00;34.00;20.33
62547;PMS7003;48602;45.192;5.722;2023-02-22T06:12:15;39.00;33.00;21.00
62547;PMS7003;48602;45.192;5.722;2023-02-22T06:14:41;35.00;33.67;23.00
62547;PMS7003;48602;45.192;5.722;2023-02-22T06:17:10;45.67;39.33;25.33
62547;PMS7003;48602;45.192;5.722;2023-02-22T06:19:36;47.00;38.67;26.33
62547;PMS7003;48602;45.192;5.722;2023-02-22T06:22:02;47.33;42.00;27.33
62547;PMS7003;48602;45.192;5.722;2023-02-22T06:24:27;51.67;44.33;30.00
62547;PMS7003;48602;45.192;5.722;2023-02-22T06:26:54;60.00;49.00;33.00
62547;PMS7003;48602;45.192;5.722;2023-02-22T06:29:28;50.67;41.33;28.67
62547;PMS7003;48602;45.192;5.722;2023-02-22T06:31:53;58.67;46.00;30.00
62547;PMS7003;48602;45.192;5.722;2023-02-22T06:34:19;53.67;41.67;28.33
62547;PMS7003;48602;45.192;5.722;2023-02-22T06:36:46;50.67;42.33;29.00
62547;PMS7003;48602;45.192;5.722;2023-02-22T06:39:12;56.00;44.67;28.00
62547;PMS7003;48602;45.192;5.722;2023-02-22T06:41:40;54.67;41.67;28.00
62547;PMS7003;48602;45.192;5.722;2023-02-22T06:44:06;52.33;42.33;26.67
62547;PMS7003;48602;45.192;5.722;2023-02-22T06:46:32;60.00;44.33;31.00
62547;PMS7003;48602;45.192;5.722;2023-02-22T06:48:59;53.33;44.00;30.00
62547;PMS7003;48602;45.192;5.722;2023-02-22T06:51:25;58.33;44.67;29.00
62547;PMS7003;48602;45.192;5.722;2023-02-22T06:53:51;52.67;44.00;31.00
62547;PMS7003;48602;45.192;5.722;2023-02-22T06:56:17;54.33;43.67;28.00
62547;PMS7003;48602;45.192;5.722;2023-02-22T06:58:43;53.33;42.00;29.00
62547;PMS7003;48602;45.192;5.722;2023-02-22T07:01:08;58.67;45.67;29.33
62547;PMS7003;48602;45.192;5.722;2023-02-22T07:03:34;50.33;41.33;27.00
62547;PMS7003;48602;45.192;5.722;2023-02-22T07:06:00;56.00;42.33;29.33
62547;PMS7003;48602;45.192;5.722;2023-02-22T07:08:26;57.67;42.67;28.67
62547;PMS7003;48602;45.192;5.722;2023-02-22T07:10:52;52.33;43.00;29.33
62547;PMS7003;48602;45.192;5.722;2023-02-22T07:13:18;53.33;43.00;29.67
62547;PMS7003;48602;45.192;5.722;2023-02-22T07:15:43;52.33;43.67;29.67
62547;PMS7003;48602;45.192;5.722;2023-02-22T07:18:09;50.67;41.33;30.00
62547;PMS7003;48602;45.192;5.722;2023-02-22T07:20:36;60.33;47.00;30.67
62547;PMS7003;48602;45.192;5.722;2023-02-22T07:23:02;56.00;44.33;30.00
62547;PMS7003;48602;45.192;5.722;2023-02-22T07:25:28;46.67;37.00;26.33
62547;PMS7003;48602;45.192;5.722;2023-02-22T07:27:54;49.33;40.33;28.67
62547;PMS7003;48602;45.192;5.722;2023-02-22T07:32:55;49.67;42.33;29.67
62547;PMS7003;48602;45.192;5.722;2023-02-22T07:35:26;50.67;41.33;28.00
62547;PMS7003;48602;45.192;5.722;2023-02-22T07:37:52;60.00;45.67;30.67
62547;PMS7003;48602;45.192;5.722;2023-02-22T07:40:18;36.67;33.33;22.33
62547;PMS7003;48602;45.192;5.722;2023-02-22T07:42:50;54.33;43.00;29.67
62547;PMS7003;48602;45.192;5.722;2023-02-22T07:45:25;52.00;44.33;30.00
62547;PMS7003;48602;45.192;5.722;2023-02-22T07:47:56;57.33;44.67;31.00
62547;PMS7003;48602;45.192;5.722;2023-02-22T07:50:22;58.67;45.67;29.67
62547;PMS7003;48602;45.192;5.722;2023-02-22T07:52:52;59.33;46.67;29.67
62547;PMS7003;48602;45.192;5.722;2023-02-22T07:55:20;51.33;42.33;27.33
62547;PMS7003;48602;45.192;5.722;2023-02-22T07:57:48;52.67;44.00;30.33
62547;PMS7003;48602;45.192;5.722;2023-02-22T08:00:16;58.00;46.33;30.33
62547;PMS7003;48602;45.192;5.722;2023-02-22T08:02:50;56.67;44.00;27.00
62547;PMS7003;48602;45.192;5.722;2023-02-22T08:05:16;52.67;41.67;29.33
62547;PMS7003;48602;45.192;5.722;2023-02-22T08:07:42;58.00;43.67;28.67
62547;PMS7003;48602;45.192;5.722;2023-02-22T08:10:08;56.67;45.67;30.33
62547;PMS7003;48602;45.192;5.722;2023-02-22T08:12:34;52.00;40.67;26.33
62547;PMS7003;48602;45.192;5.722;2023-02-22T08:15:02;54.67;43.33;30.33
62547;PMS7003;48602;45.192;5.722;2023-02-22T08:17:28;58.33;46.00;31.00
62547;PMS7003;48602;45.192;5.722;2023-02-22T08:19:54;56.00;44.67;29.67
62547;PMS7003;48602;45.192;5.722;2023-02-22T08:22:19;56.50;46.50;29.50
62547;PMS7003;48602;45.192;5.722;2023-02-22T08:24:45;53.67;42.00;30.67
62547;PMS7003;48602;45.192;5.722;2023-02-22T08:27:10;56.33;45.00;28.33
62547;PMS7003;48602;45.192;5.722;2023-02-22T08:29:36;44.00;36.33;24.67
62547;PMS7003;48602;45.192;5.722;2023-02-22T08:32:02;57.67;46.00;29.00
62547;PMS7003;48602;45.192;5.722;2023-02-22T08:34:27;55.33;41.33;29.00
62547;PMS7003;48602;45.192;5.722;2023-02-22T08:36:53;50.67;42.67;29.33
62547;PMS7003;48602;45.192;5.722;2023-02-22T08:39:18;51.67;41.33;27.00
62547;PMS7003;48602;45.192;5.722;2023-02-22T08:41:44;61.00;45.33;30.33
62547;PMS7003;48602;45.192;5.722;2023-02-22T08:44:09;61.00;47.67;31.00
62547;PMS7003;48602;45.192;5.722;2023-02-22T08:46:35;57.00;45.33;29.00
62547;PMS7003;48602;45.192;5.722;2023-02-22T08:49:00;56.33;43.00;30.00
62547;PMS7003;48602;45.192;5.722;2023-02-22T08:51:27;60.67;46.00;30.00
62547;PMS7003;48602;45.192;5.722;2023-02-22T08:53:53;57.00;48.33;32.00
62547;PMS7003;48602;45.192;5.722;2023-02-22T08:56:19;53.00;43.00;29.00
62547;PMS7003;48602;45.192;5.722;2023-02-22T08:58:44;58.33;46.67;32.00
62547;PMS7003;48602;45.192;5.722;2023-02-22T09:01:10;55.33;43.67;29.00
62547;PMS7003;48602;45.192;5.722;2023-02-22T09:03:36;48.67;40.33;27.67
62547;PMS7003;48602;45.192;5.722;2023-02-22T09:06:02;53.00;44.00;30.67
62547;PMS7003;48602;45.192;5.722;2023-02-22T09:08:28;61.67;46.67;31.00
62547;PMS7003;48602;45.192;5.722;2023-02-22T09:10:53;54.67;44.33;29.00
62547;PMS7003;48602;45.192;5.722;2023-02-22T09:13:19;56.33;47.00;30.33
62547;PMS7003;48602;45.192;5.722;2023-02-22T09:15:44;55.00;43.33;30.67
62547;PMS7003;48602;45.192;5.722;2023-02-22T09:18:10;58.67;46.33;30.67
62547;PMS7003;48602;45.192;5.722;2023-02-22T09:20:38;55.00;42.67;28.67
62547;PMS7003;48602;45.192;5.722;2023-02-22T09:23:04;57.00;44.67;29.67
62547;PMS7003;48602;45.192;5.722;2023-02-22T09:25:31;54.67;43.67;30.00
62547;PMS7003;48602;45.192;5.722;2023-02-22T09:27:58;57.33;44.33;29.00
62547;PMS7003;48602;45.192;5.722;2023-02-22T09:32:56;55.33;46.00;28.67
62547;PMS7003;48602;45.192;5.722;2023-02-22T09:35:24;52.67;44.67;29.00
62547;PMS7003;48602;45.192;5.722;2023-02-22T09:37:54;54.00;44.67;30.00
62547;PMS7003;48602;45.192;5.722;2023-02-22T09:40:20;54.00;43.67;29.00
62547;PMS7003;48602;45.192;5.722;2023-02-22T09:43:01;57.33;44.00;30.33
62547;PMS7003;48602;45.192;5.722;2023-02-22T09:49:15;58.33;46.33;29.00
62547;PMS7003;48602;45.192;5.722;2023-02-22T09:51:54;53.00;42.33;28.67
62547;PMS7003;48602;45.192;5.722;2023-02-22T09:54:43;60.67;45.33;31.00
62547;PMS7003;48602;45.192;5.722;2023-02-22T09:57:17;56.33;45.00;30.33
62547;PMS7003;48602;45.192;5.722;2023-02-22T10:02:38;58.67;47.00;33.00
62547;PMS7003;48602;45.192;5.722;2023-02-22T10:05:57;51.67;41.67;30.33
62547;PMS7003;48602;45.192;5.722;2023-02-22T10:08:04;62.33;48.33;31.00
62547;PMS7003;48602;45.192;5.722;2023-02-22T10:10:37;53.33;44.33;30.67
62547;PMS7003;48602;45.192;5.722;2023-02-22T10:27:18;55.00;44.00;27.67
62547;PMS7003;48602;45.192;5.722;2023-02-22T10:29:50;58.67;47.00;31.00
62547;PMS7003;48602;45.192;5.722;2023-02-22T10:32:44;66.00;48.33;33.00
62547;PMS7003;48602;45.192;5.722;2023-02-22T10:35:25;65.00;49.00;31.33
62547;PMS7003;48602;45.192;5.722;2023-02-22T10:37:57;66.00;49.33;32.67
62547;PMS7003;48602;45.192;5.722;2023-02-22T10:40:26;59.00;49.00;30.00
62547;PMS7003;48602;45.192;5.722;2023-02-22T10:43:05;58.00;46.00;30.67
62547;PMS7003;48602;45.192;5.722;2023-02-22T10:45:32;57.33;46.33;31.33
62547;PMS7003;48602;45.192;5.722;2023-02-22T10:48:04;64.67;50.00;32.00
62547;PMS7003;48602;45.192;5.722;2023-02-22T10:50:36;58.00;47.00;31.00
62547;PMS7003;48602;45.192;5.722;2023-02-22T10:53:05;40.67;33.67;24.33
62547;PMS7003;48602;45.192;5.722;2023-02-22T10:55:31;58.00;46.33;31.00
62547;PMS7003;48602;45.192;5.722;2023-02-22T10:58:03;64.00;50.00;33.33
62547;PMS7003;48602;45.192;5.722;2023-02-22T11:00:33;59.33;46.67;32.00
62547;PMS7003;48602;45.192;5.722;2023-02-22T11:03:17;58.33;47.67;30.00
62547;PMS7003;48602;45.192;5.722;2023-02-22T11:05:46;58.00;47.33;31.00
62547;PMS7003;48602;45.192;5.722;2023-02-22T11:10:50;61.00;48.33;32.33
62547;PMS7003;48602;45.192;5.722;2023-02-22T11:15:50;61.67;48.33;31.00
62547;PMS7003;48602;45.192;5.722;2023-02-22T11:18:21;55.00;46.67;30.67
62547;PMS7003;48602;45.192;5.722;2023-02-22T11:20:57;56.67;44.33;30.67
62547;PMS7003;48602;45.192;5.722;2023-02-22T11:23:24;59.00;46.67;30.00
62547;PMS7003;48602;45.192;5.722;2023-02-22T11:25:50;60.33;48.67;30.33
62547;PMS7003;48602;45.192;5.722;2023-02-22T11:28:27;59.67;48.00;31.67
62547;PMS7003;48602;45.192;5.722;2023-02-22T11:31:10;61.67;47.67;32.00
62547;PMS7003;48602;45.192;5.722;2023-02-22T11:33:45;57.67;47.67;31.67
62547;PMS7003;48602;45.192;5.722;2023-02-22T11:36:28;55.00;44.33;29.33
62547;PMS7003;48602;45.192;5.722;2023-02-22T11:38:56;57.67;45.67;30.00
62547;PMS7003;48602;45.192;5.722;2023-02-22T11:41:28;59.33;47.33;31.67
62547;PMS7003;48602;45.192;5.722;2023-02-22T11:43:54;59.67;46.33;31.00
62547;PMS7003;48602;45.192;5.722;2023-02-22T11:46:47;57.33;45.33;29.67
62547;PMS7003;48602;45.192;5.722;2023-02-22T11:49:14;60.33;47.00;31.00
62547;PMS7003;48602;45.192;5.722;2023-02-22T11:59:41;67.33;50.33;32.00
62547;PMS7003;48602;45.192;5.722;2023-02-22T12:13:25;64.33;48.67;31.00
62547;PMS7003;48602;45.192;5.722;2023-02-22T12:16:01;64.33;50.33;33.00
62547;PMS7003;48602;45.192;5.722;2023-02-22T12:18:38;63.00;49.00;32.00
62547;PMS7003;48602;45.192;5.722;2023-02-22T12:21:17;65.67;50.00;33.00
62547;PMS7003;48602;45.192;5.722;2023-02-22T12:28:46;54.00;42.33;28.67
62547;PMS7003;48602;45.192;5.722;2023-02-22T12:42:12;62.67;46.67;31.33
62547;PMS7003;48602;45.192;5.722;2023-02-22T12:44:42;62.67;49.33;32.00
62547;PMS7003;48602;45.192;5.722;2023-02-22T12:47:17;56.33;44.67;29.00
62547;PMS7003;48602;45.192;5.722;2023-02-22T12:49:51;59.33;43.33;28.33
62547;PMS7003;48602;45.192;5.722;2023-02-22T12:52:55;57.00;45.67;29.33
62547;PMS7003;48602;45.192;5.722;2023-02-22T12:55:23;54.67;44.00;29.00
62547;PMS7003;48602;45.192;5.722;2023-02-22T12:58:24;56.00;45.00;29.33
62547;PMS7003;48602;45.192;5.722;2023-02-22T13:03:54;47.33;40.00;27.00
62547;PMS7003;48602;45.192;5.722;2023-02-22T13:06:33;51.00;41.33;29.00
62547;PMS7003;48602;45.192;5.722;2023-02-22T13:22:27;51.33;41.00;27.00
62547;PMS7003;48602;45.192;5.722;2023-02-22T13:27:32;50.33;41.33;28.00
62547;PMS7003;48602;45.192;5.722;2023-02-22T13:30:04;58.00;46.00;30.00
62547;PMS7003;48602;45.192;5.722;2023-02-22T13:38:24;55.33;44.67;29.33
62547;PMS7003;48602;45.192;5.722;2023-02-22T13:46:28;59.00;45.33;29.33
62547;PMS7003;48602;45.192;5.722;2023-02-22T13:52:00;58.00;47.67;31.00
62547;PMS7003;48602;45.192;5.722;2023-02-22T13:56:59;59.00;43.67;27.33
62547;PMS7003;48602;45.192;5.722;2023-02-22T13:59:33;57.67;45.33;30.33
62547;PMS7003;48602;45.192;5.722;2023-02-22T14:02:01;57.67;44.67;30.00
62547;PMS7003;48602;45.192;5.722;2023-02-22T14:06:58;54.33;42.33;26.33
62547;PMS7003;48602;45.192;5.722;2023-02-22T14:15:26;59.67;47.00;31.33
62547;PMS7003;48602;45.192;5.722;2023-02-22T14:17:46;59.33;46.67;31.33
62547;PMS7003;48602;45.192;5.722;2023-02-22T14:20:31;61.67;47.33;30.00
62547;PMS7003;48602;45.192;5.722;2023-02-22T14:25:47;59.33;45.67;30.00
62547;PMS7003;48602;45.192;5.722;2023-02-22T14:31:31;58.33;46.67;30.33
62547;PMS7003;48602;45.192;5.722;2023-02-22T14:36:33;59.00;45.00;30.00
62547;PMS7003;48602;45.192;5.722;2023-02-22T14:42:18;58.33;46.00;31.00
62547;PMS7003;48602;45.192;5.722;2023-02-22T14:47:40;58.67;45.67;30.33
62547;PMS7003;48602;45.192;5.722;2023-02-22T14:55:37;57.00;45.00;28.00
62547;PMS7003;48602;45.192;5.722;2023-02-22T14:58:09;59.00;46.67;30.67
62547;PMS7003;48602;45.192;5.722;2023-02-22T15:03:01;58.00;47.00;31.33
62547;PMS7003;48602;45.192;5.722;2023-02-22T15:05:28;62.33;48.00;32.00
62547;PMS7003;48602;45.192;5.722;2023-02-22T15:08:04;64.00;49.00;32.67
62547;PMS7003;48602;45.192;5.722;2023-02-22T15:13:13;62.33;49.00;30.67
62547;PMS7003;48602;45.192;5.722;2023-02-22T15:15:47;67.00;48.67;31.33
62547;PMS7003;48602;45.192;5.722;2023-02-22T15:21:39;62.67;48.33;33.00
62547;PMS7003;48602;45.192;5.722;2023-02-22T15:23:59;60.00;48.67;31.33
62547;PMS7003;48602;45.192;5.722;2023-02-22T15:26:32;63.00;49.00;32.33
62547;PMS7003;48602;45.192;5.722;2023-02-22T15:29:03;63.67;50.00;31.67
62547;PMS7003;48602;45.192;5.722;2023-02-22T15:31:34;63.33;48.00;31.67
62547;PMS7003;48602;45.192;5.722;2023-02-22T15:34:09;63.67;51.00;32.00
62547;PMS7003;48602;45.192;5.722;2023-02-22T15:36:46;63.00;48.67;33.00
62547;PMS7003;48602;45.192;5.722;2023-02-22T15:42:04;62.00;46.67;32.00
62547;PMS7003;48602;45.192;5.722;2023-02-22T15:44:43;68.00;51.67;33.33
62547;PMS7003;48602;45.192;5.722;2023-02-22T15:47:19;64.67;50.00;31.33
62547;PMS7003;48602;45.192;5.722;2023-02-22T15:53:01;59.00;47.00;31.00
62547;PMS7003;48602;45.192;5.722;2023-02-22T15:58:09;60.33;47.67;31.33
62547;PMS7003;48602;45.192;5.722;2023-02-22T16:00:43;63.00;48.67;32.00
62547;PMS7003;48602;45.192;5.722;2023-02-22T16:03:14;63.33;49.33;32.00
62547;PMS7003;48602;45.192;5.722;2023-02-22T16:05:43;61.67;44.67;29.67
62547;PMS7003;48602;45.192;5.722;2023-02-22T16:08:33;64.67;49.00;31.33
62547;PMS7003;48602;45.192;5.722;2023-02-22T16:11:01;63.67;49.33;32.67
62547;PMS7003;48602;45.192;5.722;2023-02-22T16:13:33;63.33;49.33;31.33
62547;PMS7003;48602;45.192;5.722;2023-02-22T16:18:46;57.33;47.00;30.33
62547;PMS7003;48602;45.192;5.722;2023-02-22T16:21:20;61.00;47.33;31.00
62547;PMS7003;48602;45.192;5.722;2023-02-22T16:23:53;64.00;47.00;32.00
62547;PMS7003;48602;45.192;5.722;2023-02-22T16:28:47;59.00;47.33;30.33
62547;PMS7003;48602;45.192;5.722;2023-02-22T16:31:21;61.67;47.67;30.33
62547;PMS7003;48602;45.192;5.722;2023-02-22T16:33:52;65.00;50.67;32.00
62547;PMS7003;48602;45.192;5.722;2023-02-22T16:36:19;64.00;49.33;32.67
62547;PMS7003;48602;45.192;5.722;2023-02-22T16:38:47;63.67;49.33;31.00
62547;PMS7003;48602;45.192;5.722;2023-02-22T16:41:16;60.00;46.67;31.33
62547;PMS7003;48602;45.192;5.722;2023-02-22T16:43:44;58.00;46.00;30.00
62547;PMS7003;48602;45.192;5.722;2023-02-22T16:46:14;59.67;42.33;29.00
62547;PMS7003;48602;45.192;5.722;2023-02-22T16:48:41;49.67;41.33;26.33
62547;PMS7003;48602;45.192;5.722;2023-02-22T16:51:08;56.67;46.67;30.00
62547;PMS7003;48602;45.192;5.722;2023-02-22T16:53:43;58.33;47.67;31.00
62547;PMS7003;48602;45.192;5.722;2023-02-22T16:56:09;61.67;46.00;29.00
62547;PMS7003;48602;45.192;5.722;2023-02-22T16:58:40;58.67;46.33;30.67
62547;PMS7003;48602;45.192;5.722;2023-02-22T17:01:06;58.67;46.67;29.00
62547;PMS7003;48602;45.192;5.722;2023-02-22T17:03:33;61.33;47.33;31.00